createdAt,value
2022-08-05T00:01:20.283Z,0.00
2022-08-05T00:02:07.765Z,0.00
2022-08-05T00:02:58.071Z,0.00
2022-08-05T00:03:57.508Z,0.00
2022-08-05T00:04:56.984Z,0.00
2022-08-05T00:06:05.410Z,0.00
2022-08-05T00:06:57.967Z,0.00
2022-08-05T00:08:00.336Z,0.00
2022-08-05T00:08:56.902Z,0.00
2022-08-05T00:09:56.898Z,0.00
2022-08-05T00:10:56.939Z,0.00
2022-08-05T00:11:59.841Z,0.00
2022-08-05T00:12:57.100Z,0.00
2022-08-05T00:13:57.888Z,0.00
2022-08-05T00:14:56.855Z,0.00
2022-08-05T00:15:57.802Z,0.00
2022-08-05T00:16:57.922Z,0.00
2022-08-05T00:17:56.854Z,0.00
2022-08-05T00:18:56.835Z,0.00
2022-08-05T00:20:01.952Z,0.00
2022-08-05T00:20:57.767Z,0.00
2022-08-05T00:21:56.801Z,0.00
2022-08-05T00:22:58.511Z,0.00
2022-08-05T00:24:09.825Z,0.00
2022-08-05T00:24:57.789Z,0.00
2022-08-05T00:25:56.728Z,0.00
2022-08-05T00:26:56.829Z,0.00
2022-08-05T00:27:56.714Z,0.00
2022-08-05T00:28:56.730Z,0.00
2022-08-05T00:29:56.707Z,0.00
2022-08-05T00:30:56.728Z,0.00
2022-08-05T00:32:13.142Z,0.00
2022-08-05T00:32:57.669Z,0.00
2022-08-05T00:34:55.858Z,0.00
2022-08-05T00:35:06.634Z,0.00
2022-08-05T00:36:16.370Z,0.00
2022-08-05T00:37:09.766Z,0.00
2022-08-05T00:37:57.701Z,0.00
2022-08-05T00:38:56.707Z,0.00
2022-08-05T00:39:57.844Z,0.00
2022-08-05T00:40:56.590Z,0.00
2022-08-05T00:41:56.648Z,0.00
2022-08-05T00:42:56.559Z,0.00
2022-08-05T00:43:56.573Z,0.00
2022-08-05T00:44:56.610Z,0.00
2022-08-05T00:45:56.565Z,0.00
2022-08-05T00:47:01.595Z,0.00
2022-08-05T00:48:05.305Z,0.00
2022-08-05T00:48:57.643Z,0.00
2022-08-05T00:49:56.515Z,0.00
2022-08-05T00:50:56.503Z,0.00
2022-08-05T00:51:56.526Z,0.00
2022-08-05T00:52:56.483Z,0.00
2022-08-05T00:54:02.690Z,0.00
2022-08-05T00:54:57.499Z,0.00
2022-08-05T00:55:56.449Z,0.00
2022-08-05T00:56:56.450Z,0.00
2022-08-05T00:57:59.092Z,0.00
2022-08-05T00:58:56.440Z,0.00
2022-08-05T00:59:56.411Z,0.00
2022-08-05T01:00:56.418Z,0.00
2022-08-05T01:01:56.473Z,0.00
2022-08-05T01:02:56.367Z,0.00
2022-08-05T01:03:56.387Z,0.00
2022-08-05T01:04:56.352Z,0.00
2022-08-05T01:05:56.392Z,0.00
2022-08-05T01:06:56.399Z,0.00
2022-08-05T01:08:41.054Z,0.00
2022-08-05T01:08:57.362Z,0.00
2022-08-05T01:09:56.305Z,0.00
2022-08-05T01:10:56.334Z,0.00
2022-08-05T01:11:56.439Z,0.00
2022-08-05T01:13:05.119Z,0.00
2022-08-05T01:13:59.620Z,0.00
2022-08-05T01:14:56.238Z,0.00
2022-08-05T01:15:56.264Z,0.00
2022-08-05T01:16:56.255Z,0.00
2022-08-05T01:17:56.248Z,0.00
2022-08-05T01:18:56.741Z,0.00
2022-08-05T01:20:02.702Z,0.00
2022-08-05T01:20:57.203Z,0.00
2022-08-05T01:21:56.245Z,0.00
2022-08-05T01:22:57.276Z,0.00
2022-08-05T01:23:56.172Z,0.00
2022-08-05T01:24:56.170Z,0.00
2022-08-05T01:25:56.165Z,0.00
2022-08-05T01:26:56.155Z,0.00
2022-08-05T01:27:56.160Z,0.00
2022-08-05T01:28:56.132Z,0.00
2022-08-05T01:29:56.188Z,0.00
2022-08-05T01:30:56.161Z,0.00
2022-08-05T01:31:56.087Z,0.00
2022-08-05T01:32:56.226Z,0.00
2022-08-05T01:33:56.058Z,0.00
2022-08-05T01:34:57.025Z,0.00
2022-08-05T01:35:57.600Z,0.00
2022-08-05T01:36:56.107Z,0.00
2022-08-05T01:37:56.114Z,0.00
2022-08-05T01:38:56.078Z,0.00
2022-08-05T01:39:58.978Z,0.00
2022-08-05T01:40:56.050Z,0.00
2022-08-05T01:41:56.010Z,0.00
2022-08-05T01:42:56.051Z,0.00
2022-08-05T01:43:56.149Z,0.00
2022-08-05T01:44:56.050Z,0.00
2022-08-05T01:45:56.749Z,0.00
2022-08-05T01:46:55.996Z,0.00
2022-08-05T01:47:55.999Z,0.00
2022-08-05T01:48:55.983Z,0.00
2022-08-05T01:50:01.862Z,0.00
2022-08-05T01:50:57.962Z,0.00
2022-08-05T01:51:55.929Z,0.00
2022-08-05T01:52:56.037Z,0.00
2022-08-05T01:53:58.836Z,0.00
2022-08-05T01:54:55.885Z,0.00
2022-08-05T01:55:55.849Z,0.00
2022-08-05T01:58:10.037Z,0.00
2022-08-05T01:58:10.132Z,0.00
2022-08-05T01:58:56.836Z,0.00
2022-08-05T01:59:55.924Z,0.00
2022-08-05T02:01:04.073Z,0.00
2022-08-05T02:01:55.875Z,0.00
2022-08-05T02:02:55.797Z,0.00
2022-08-05T02:03:55.789Z,0.00
2022-08-05T02:04:55.763Z,0.00
2022-08-05T02:05:59.832Z,0.00
2022-08-05T02:06:56.743Z,0.00
2022-08-05T02:08:00.020Z,0.00
2022-08-05T02:08:58.781Z,0.00
2022-08-05T02:09:55.709Z,0.00
2022-08-05T02:10:55.688Z,0.00
2022-08-05T02:11:55.671Z,0.00
2022-08-05T02:12:55.670Z,0.00
2022-08-05T02:13:55.701Z,0.00
2022-08-05T02:14:55.682Z,0.00
2022-08-05T02:15:55.637Z,0.00
2022-08-05T02:16:55.653Z,0.00
2022-08-05T02:18:31.767Z,0.00
2022-08-05T02:18:56.612Z,0.00
2022-08-05T02:19:55.630Z,0.00
2022-08-05T02:20:58.875Z,0.00
2022-08-05T02:21:55.625Z,0.00
2022-08-05T02:22:55.601Z,0.00
2022-08-05T02:23:55.550Z,0.00
2022-08-05T02:24:55.588Z,0.00
2022-08-05T02:25:55.602Z,0.00
2022-08-05T02:26:55.619Z,0.00
2022-08-05T02:27:58.479Z,0.00
2022-08-05T02:28:55.519Z,0.00
2022-08-05T02:29:59.474Z,0.00
2022-08-05T02:30:56.548Z,0.00
2022-08-05T02:31:55.476Z,0.00
2022-08-05T02:44:56.793Z,0.00
2022-08-05T02:45:56.827Z,0.00
2022-08-05T02:52:03.177Z,0.00
2022-08-05T02:52:37.453Z,0.00
2022-08-05T02:53:39.686Z,0.00
2022-08-05T02:54:37.433Z,0.00
2022-08-05T02:55:54.923Z,0.00
2022-08-05T02:56:38.736Z,0.00
2022-08-05T02:58:11.265Z,0.00
2022-08-05T02:58:43.702Z,0.00
2022-08-05T02:59:47.897Z,0.00
2022-08-05T03:00:38.525Z,0.00
2022-08-05T03:01:37.620Z,0.00
2022-08-05T03:02:37.577Z,0.00
2022-08-05T03:04:04.219Z,0.00
2022-08-05T03:04:38.475Z,0.00
2022-08-05T03:06:55.387Z,0.00
2022-08-05T03:06:56.474Z,0.00
2022-08-05T03:08:00.704Z,0.00
2022-08-05T03:08:38.441Z,0.00
2022-08-05T03:09:38.412Z,0.00
2022-08-05T03:10:38.417Z,0.00
2022-08-05T03:11:56.069Z,0.00
2022-08-05T03:12:38.521Z,0.00
2022-08-05T03:13:51.465Z,0.00
2022-08-05T03:14:45.767Z,0.00
2022-08-05T03:15:38.406Z,0.00
2022-08-05T03:16:37.334Z,0.00
2022-08-05T03:17:41.515Z,0.00
2022-08-05T03:18:37.364Z,0.00
2022-08-05T03:19:37.325Z,0.00
2022-08-05T03:20:37.311Z,0.00
2022-08-05T03:21:41.692Z,0.00
2022-08-05T03:22:38.361Z,0.00
2022-08-05T03:23:38.253Z,0.00
2022-08-05T03:24:37.274Z,0.00
2022-08-05T03:26:04.982Z,0.00
2022-08-05T03:26:38.238Z,0.00
2022-08-05T03:27:58.034Z,0.00
2022-08-05T03:28:38.207Z,0.00
2022-08-05T03:29:45.269Z,0.00
2022-08-05T03:30:38.441Z,0.00
2022-08-05T03:31:56.462Z,4.00
2022-08-05T03:32:38.226Z,4.00
2022-08-05T03:33:51.019Z,0.00
2022-08-05T03:34:38.154Z,4.00
2022-08-05T03:35:40.784Z,4.00
2022-08-05T03:36:37.164Z,4.00
2022-08-05T03:37:46.543Z,8.00
2022-08-05T03:38:38.134Z,8.00
2022-08-05T03:39:57.775Z,8.00
2022-08-05T03:40:39.268Z,12.00
2022-08-05T03:41:45.178Z,12.00
2022-08-05T03:42:51.449Z,12.00
2022-08-05T03:44:09.535Z,16.00
2022-08-05T03:44:38.105Z,12.00
2022-08-05T03:45:58.339Z,16.00
2022-08-05T03:46:38.079Z,16.00
2022-08-05T03:47:41.387Z,16.00
2022-08-05T03:48:37.025Z,16.00
2022-08-05T03:49:51.437Z,16.00
2022-08-05T03:50:37.995Z,16.00
2022-08-05T03:52:49.072Z,20.00
2022-08-05T03:55:00.017Z,20.00
2022-08-05T03:55:52.722Z,20.00
2022-08-05T03:56:00.722Z,16.00
2022-08-05T03:56:01.887Z,24.00
2022-08-05T03:56:37.949Z,24.00
2022-08-05T03:57:42.042Z,24.00
2022-08-05T03:58:37.940Z,24.00
2022-08-05T03:59:47.650Z,20.00
2022-08-05T04:00:37.890Z,20.00
2022-08-05T04:01:36.981Z,20.00
2022-08-05T04:02:38.594Z,20.00
2022-08-05T04:03:38.152Z,24.00
2022-08-05T04:04:36.863Z,28.00
2022-08-05T04:05:36.869Z,28.00
2022-08-05T04:06:36.865Z,32.00
2022-08-05T04:07:36.844Z,36.00
2022-08-05T04:08:37.856Z,36.00
2022-08-05T04:09:36.827Z,36.00
2022-08-05T04:10:38.347Z,40.00
2022-08-05T04:11:47.528Z,44.00
2022-08-05T04:13:23.785Z,36.00
2022-08-05T04:14:29.836Z,36.00
2022-08-05T04:15:24.760Z,40.00
2022-08-05T04:16:25.196Z,40.00
2022-08-05T04:17:24.922Z,36.00
2022-08-05T04:18:25.510Z,32.00
2022-08-05T04:19:23.649Z,32.00
2022-08-05T04:20:23.601Z,40.00
2022-08-05T04:22:08.235Z,40.00
2022-08-05T04:22:24.603Z,48.00
2022-08-05T04:23:57.222Z,56.00
2022-08-05T04:24:24.729Z,64.00
2022-08-05T04:25:38.280Z,72.00
2022-08-05T04:26:24.541Z,84.00
2022-08-05T04:27:41.943Z,104.00
2022-08-05T04:28:28.531Z,120.00
2022-08-05T04:29:24.543Z,144.00
2022-08-05T04:30:23.499Z,168.00
2022-08-05T04:31:23.564Z,188.00
2022-08-05T04:32:31.090Z,208.00
2022-08-05T04:33:54.901Z,220.00
2022-08-05T04:34:33.735Z,224.00
2022-08-05T04:35:24.456Z,220.00
2022-08-05T04:36:49.370Z,212.00
2022-08-05T04:38:02.158Z,204.00
2022-08-05T04:38:39.751Z,200.00
2022-08-05T04:39:27.559Z,192.00
2022-08-05T04:40:24.553Z,192.00
2022-08-05T04:41:37.113Z,188.00
2022-08-05T04:42:25.679Z,192.00
2022-08-05T04:43:24.531Z,192.00
2022-08-05T04:44:29.883Z,192.00
2022-08-05T04:45:48.607Z,196.00
2022-08-05T04:46:27.805Z,208.00
2022-08-05T04:47:24.864Z,216.00
2022-08-05T04:48:27.347Z,232.00
2022-08-05T04:49:38.675Z,240.00
2022-08-05T04:50:37.233Z,248.00
2022-08-05T04:51:25.509Z,252.00
2022-08-05T04:52:24.473Z,260.00
2022-08-05T04:53:24.438Z,280.00
2022-08-05T04:54:24.462Z,292.00
2022-08-05T04:56:15.240Z,296.00
2022-08-05T04:56:35.162Z,288.00
2022-08-05T04:57:28.539Z,280.00
2022-08-05T04:58:24.395Z,284.00
2022-08-05T04:59:40.585Z,300.00
2022-08-05T05:00:25.373Z,320.00
2022-08-05T05:01:33.680Z,344.00
2022-08-05T05:02:41.944Z,376.00
2022-08-05T05:03:25.346Z,400.00
2022-08-05T05:04:25.331Z,420.00
2022-08-05T05:05:28.257Z,444.00
2022-08-05T05:06:38.797Z,452.00
2022-08-05T05:07:29.438Z,464.00
2022-08-05T05:08:29.877Z,480.00
2022-08-05T05:09:25.290Z,500.00
2022-08-05T05:10:24.259Z,528.00
2022-08-05T05:11:24.259Z,568.00
2022-08-05T05:12:27.367Z,608.00
2022-08-05T05:13:24.240Z,664.00
2022-08-05T05:14:27.810Z,732.00
2022-08-05T05:15:57.341Z,816.00
2022-08-05T05:16:30.246Z,904.00
2022-08-05T05:17:56.314Z,980.00
2022-08-05T05:18:31.461Z,1036.00
2022-08-05T05:19:27.320Z,1088.00
2022-08-05T05:20:28.833Z,1152.00
2022-08-05T05:21:24.172Z,1216.00
2022-08-05T05:22:26.098Z,1260.00
2022-08-05T05:23:25.137Z,1296.00
2022-08-05T05:24:56.393Z,1360.00
2022-08-05T05:25:40.440Z,1444.00
2022-08-05T05:26:28.407Z,1500.00
2022-08-05T05:27:25.388Z,1508.00
2022-08-05T05:28:25.105Z,1524.00
2022-08-05T05:29:24.091Z,1548.00
2022-08-05T05:30:30.627Z,1560.00
2022-08-05T05:31:26.005Z,1536.00
2022-08-05T05:32:24.053Z,1504.00
2022-08-05T05:33:24.070Z,1468.00
2022-08-05T05:34:26.754Z,1460.00
2022-08-05T05:35:25.185Z,1496.00
2022-08-05T05:36:24.010Z,1508.00
2022-08-05T05:37:37.474Z,1508.00
2022-08-05T05:38:27.576Z,1500.00
2022-08-05T05:39:24.044Z,1464.00
2022-08-05T05:40:26.171Z,1400.00
2022-08-05T05:41:24.010Z,1312.00
2022-08-05T05:42:23.973Z,1140.00
2022-08-05T05:43:54.793Z,996.00
2022-08-05T05:44:36.484Z,924.00
2022-08-05T05:45:24.946Z,864.00
2022-08-05T05:46:23.877Z,836.00
2022-08-05T05:47:30.198Z,836.00
2022-08-05T05:48:27.569Z,820.00
2022-08-05T05:49:23.929Z,800.00
2022-08-05T05:50:23.931Z,788.00
2022-08-05T05:51:23.908Z,772.00
2022-08-05T05:52:28.402Z,760.00
2022-08-05T05:53:24.850Z,756.00
2022-08-05T05:54:49.687Z,716.00
2022-08-05T05:55:24.843Z,656.00
2022-08-05T05:56:31.375Z,652.00
2022-08-05T05:57:24.973Z,692.00
2022-08-05T05:58:31.458Z,708.00
2022-08-05T05:59:24.791Z,700.00
2022-08-05T06:00:31.406Z,680.00
2022-08-05T06:01:24.809Z,644.00
2022-08-05T06:02:32.626Z,588.00
2022-08-05T06:03:40.182Z,528.00
2022-08-05T06:04:24.828Z,484.00
2022-08-05T06:05:23.734Z,496.00
2022-08-05T06:06:23.735Z,520.00
2022-08-05T06:07:23.864Z,500.00
2022-08-05T06:08:32.686Z,456.00
2022-08-05T06:09:49.165Z,440.00
2022-08-05T06:10:24.695Z,448.00
2022-08-05T06:11:23.662Z,492.00
2022-08-05T06:12:23.655Z,548.00
2022-08-05T06:13:23.689Z,544.00
2022-08-05T06:14:23.621Z,552.00
2022-08-05T06:15:24.450Z,596.00
2022-08-05T06:16:28.552Z,648.00
2022-08-05T06:17:31.001Z,704.00
2022-08-05T06:18:31.094Z,808.00
2022-08-05T06:19:26.054Z,956.00
2022-08-05T06:20:24.575Z,1132.00
2022-08-05T06:21:23.612Z,1268.00
2022-08-05T06:22:24.545Z,1340.00
2022-08-05T06:23:23.535Z,1392.00
2022-08-05T06:24:27.270Z,1468.00
2022-08-05T06:25:59.078Z,1604.00
2022-08-05T06:26:25.050Z,1760.00
2022-08-05T06:28:10.412Z,1864.00
2022-08-05T06:28:24.741Z,1952.00
2022-08-05T06:29:42.982Z,2036.00
2022-08-05T06:30:25.228Z,2096.00
2022-08-05T06:31:30.393Z,2136.00
2022-08-05T06:32:28.881Z,2128.00
2022-08-05T06:33:33.384Z,2052.00
2022-08-05T06:34:24.454Z,1892.00
2022-08-05T06:36:03.669Z,1704.00
2022-08-05T06:36:25.844Z,1548.00
2022-08-05T06:37:52.424Z,1456.00
2022-08-05T06:38:36.191Z,1420.00
2022-08-05T06:39:24.689Z,1412.00
2022-08-05T06:40:28.058Z,1432.00
2022-08-05T06:41:24.416Z,1508.00
2022-08-05T06:42:23.445Z,1664.00
2022-08-05T06:43:59.116Z,1852.00
2022-08-05T06:44:24.368Z,2000.00
2022-08-05T06:46:02.865Z,2088.00
2022-08-05T06:46:29.693Z,2120.00
2022-08-05T06:48:11.459Z,2060.00
2022-08-05T06:48:53.285Z,1960.00
2022-08-05T06:50:01.354Z,1876.00
2022-08-05T06:50:24.255Z,1792.00
2022-08-05T06:51:30.126Z,1756.00
2022-08-05T06:52:37.315Z,1820.00
2022-08-05T06:53:28.516Z,1940.00
2022-08-05T06:54:25.915Z,2124.00
2022-08-05T06:55:23.249Z,2304.00
2022-08-05T06:56:26.600Z,2392.00
2022-08-05T06:58:02.768Z,2416.00
2022-08-05T06:58:35.205Z,2452.00
2022-08-05T06:59:24.179Z,2512.00
2022-08-05T07:00:24.981Z,2624.00
2022-08-05T07:01:23.193Z,2828.00
2022-08-05T07:02:23.187Z,3072.00
2022-08-05T07:03:28.141Z,3280.00
2022-08-05T07:04:24.188Z,3396.00
2022-08-05T07:05:37.045Z,3356.00
2022-08-05T07:06:25.158Z,3220.00
2022-08-05T07:07:24.256Z,3044.00
2022-08-05T07:08:25.192Z,2832.00
2022-08-05T07:09:24.883Z,2624.00
2022-08-05T07:10:23.131Z,2432.00
2022-08-05T07:11:25.144Z,2276.00
2022-08-05T07:12:23.094Z,2192.00
2022-08-05T07:13:58.382Z,2172.00
2022-08-05T07:14:29.252Z,2204.00
2022-08-05T07:15:34.620Z,2272.00
2022-08-05T07:17:59.466Z,2388.00
2022-08-05T07:18:07.045Z,2444.00
2022-08-05T07:18:29.114Z,2408.00
2022-08-05T07:20:10.521Z,2516.00
2022-08-05T07:20:34.048Z,2512.00
2022-08-05T07:21:25.963Z,2404.00
2022-08-05T07:22:28.185Z,2332.00
2022-08-05T07:23:29.601Z,2296.00
2022-08-05T07:24:24.014Z,2292.00
2022-08-05T07:25:55.149Z,2268.00
2022-08-05T07:26:25.716Z,2540.00
2022-08-05T07:27:23.128Z,2616.00
2022-08-05T07:28:22.896Z,2540.00
2022-08-05T07:30:21.908Z,2560.00
2022-08-05T07:30:30.733Z,2488.00
2022-08-05T07:31:40.636Z,2340.00
2022-08-05T07:32:26.024Z,2036.00
2022-08-05T07:33:36.745Z,1948.00
2022-08-05T07:34:28.498Z,2380.00
2022-08-05T07:35:55.977Z,2536.00
2022-08-05T07:36:23.881Z,2452.00
2022-08-05T07:37:23.130Z,2392.00
2022-08-05T07:38:33.720Z,2372.00
2022-08-05T07:39:24.610Z,2612.00
2022-08-05T07:40:31.367Z,2796.00
2022-08-05T07:42:14.748Z,2752.00
2022-08-05T07:42:33.677Z,2488.00
2022-08-05T07:43:23.828Z,2316.00
2022-08-05T07:44:22.813Z,1956.00
2022-08-05T07:45:56.556Z,1512.00
2022-08-05T07:46:25.164Z,1436.00
2022-08-05T07:47:25.723Z,1708.00
2022-08-05T07:49:01.665Z,2160.00
2022-08-05T07:49:26.029Z,2004.00
2022-08-05T07:50:28.897Z,1888.00
2022-08-05T07:51:37.018Z,1848.00
2022-08-05T07:52:24.012Z,2044.00
2022-08-05T07:53:22.868Z,2440.00
2022-08-05T07:54:26.656Z,2624.00
2022-08-05T07:55:44.381Z,2648.00
2022-08-05T07:56:39.083Z,2720.00
2022-08-05T07:57:50.581Z,2864.00
2022-08-05T07:58:57.878Z,3028.00
2022-08-05T07:59:38.271Z,3120.00
2022-08-05T08:00:23.789Z,3100.00
2022-08-05T08:01:22.737Z,2992.00
2022-08-05T08:02:22.636Z,2936.00
2022-08-05T08:03:22.593Z,2828.00
2022-08-05T08:04:37.947Z,2780.00
2022-08-05T08:05:23.577Z,2780.00
2022-08-05T08:06:22.605Z,2884.00
2022-08-05T08:07:23.642Z,3072.00
2022-08-05T08:08:22.560Z,3180.00
2022-08-05T08:09:22.600Z,3040.00
2022-08-05T08:10:22.543Z,2640.00
2022-08-05T08:11:27.645Z,2356.00
2022-08-05T08:12:35.013Z,2184.00
2022-08-05T08:13:29.239Z,2156.00
2022-08-05T08:14:23.431Z,2368.00
2022-08-05T08:16:33.967Z,2768.00
2022-08-05T08:16:35.676Z,3128.00
2022-08-05T08:17:23.744Z,3496.00
2022-08-05T08:18:22.574Z,3772.00
2022-08-05T08:20:10.743Z,4132.00
2022-08-05T08:20:43.915Z,4576.00
2022-08-05T08:21:24.520Z,4984.00
2022-08-05T08:22:22.671Z,5000.00
2022-08-05T08:24:01.193Z,5036.00
2022-08-05T08:24:23.560Z,5176.00
2022-08-05T08:25:27.140Z,5304.00
2022-08-05T08:26:29.273Z,5364.00
2022-08-05T08:27:23.682Z,5388.00
2022-08-05T08:28:37.138Z,5100.00
2022-08-05T08:30:06.170Z,4848.00
2022-08-05T08:30:32.401Z,4596.00
2022-08-05T08:31:28.276Z,4364.00
2022-08-05T08:32:28.175Z,4100.00
2022-08-05T08:33:22.445Z,3900.00
2022-08-05T08:34:30.285Z,3800.00
2022-08-05T08:35:23.264Z,3760.00
2022-08-05T08:36:38.966Z,3628.00
2022-08-05T08:37:28.075Z,3668.00
2022-08-05T08:38:35.123Z,3388.00
2022-08-05T08:39:23.310Z,4548.00
2022-08-05T08:40:22.494Z,5908.00
2022-08-05T08:41:26.287Z,7044.00
2022-08-05T08:42:33.659Z,6548.00
2022-08-05T08:45:21.153Z,6512.00
2022-08-05T08:45:23.974Z,6584.00
2022-08-05T08:45:27.218Z,6628.00
2022-08-05T08:46:24.241Z,6724.00
2022-08-05T08:48:05.722Z,6440.00
2022-08-05T08:49:02.939Z,5900.00
2022-08-05T08:50:14.162Z,5772.00
2022-08-05T08:50:31.077Z,7180.00
2022-08-05T08:52:03.313Z,7076.00
2022-08-05T08:52:23.079Z,7052.00
2022-08-05T08:53:22.199Z,7116.00
2022-08-05T08:54:22.274Z,7028.00
2022-08-05T08:56:01.688Z,5256.00
2022-08-05T08:56:23.048Z,4932.00
2022-08-05T08:57:22.678Z,5568.00
2022-08-05T08:58:36.907Z,4248.00
2022-08-05T08:59:23.035Z,4476.00
2022-08-05T09:00:22.054Z,4832.00
2022-08-05T09:01:22.073Z,5444.00
2022-08-05T09:02:24.162Z,5232.00
2022-08-05T09:03:22.139Z,5916.00
2022-08-05T09:04:21.965Z,6264.00
2022-08-05T09:05:38.695Z,7016.00
2022-08-05T09:06:24.191Z,6632.00
2022-08-05T09:07:28.878Z,6936.00
2022-08-05T09:08:26.580Z,7528.00
2022-08-05T09:09:22.351Z,6560.00
2022-08-05T09:10:22.552Z,6236.00
2022-08-05T09:11:51.277Z,6756.00
2022-08-05T09:12:27.205Z,5228.00
2022-08-05T09:13:23.487Z,4080.00
2022-08-05T09:14:57.810Z,3500.00
2022-08-05T09:15:22.952Z,3300.00
2022-08-05T09:16:21.878Z,3036.00
2022-08-05T09:17:40.659Z,2712.00
2022-08-05T09:18:22.872Z,2412.00
2022-08-05T09:19:21.889Z,2128.00
2022-08-05T09:20:37.278Z,1836.00
2022-08-05T09:22:23.110Z,1792.00
2022-08-05T09:22:32.100Z,2080.00
2022-08-05T09:23:22.842Z,2500.00
2022-08-05T09:24:21.760Z,2996.00
2022-08-05T09:25:24.591Z,3680.00
2022-08-05T09:26:22.908Z,4056.00
2022-08-05T09:28:04.565Z,4536.00
2022-08-05T09:28:23.227Z,5248.00
2022-08-05T09:29:21.777Z,5924.00
2022-08-05T09:30:23.456Z,6316.00
2022-08-05T09:31:43.405Z,6884.00
2022-08-05T09:32:46.501Z,7488.00
2022-08-05T09:33:22.811Z,7248.00
2022-08-05T09:34:22.717Z,7344.00
2022-08-05T09:35:27.351Z,7428.00
2022-08-05T09:36:27.796Z,7444.00
2022-08-05T09:38:12.938Z,7416.00
2022-08-05T09:38:27.505Z,7496.00
2022-08-05T09:39:22.631Z,9392.00
2022-08-05T09:40:22.013Z,9740.00
2022-08-05T09:41:21.592Z,9964.00
2022-08-05T09:42:28.233Z,9344.00
2022-08-05T09:43:24.204Z,9664.00
2022-08-05T09:44:21.694Z,9424.00
2022-08-05T09:46:07.831Z,9256.00
2022-08-05T09:46:22.596Z,9128.00
2022-08-05T09:47:22.701Z,8296.00
2022-08-05T09:48:22.624Z,8232.00
2022-08-05T09:49:21.547Z,8264.00
2022-08-05T09:50:38.690Z,8320.00
2022-08-05T09:51:22.572Z,9252.00
2022-08-05T09:52:21.658Z,9128.00
2022-08-05T09:53:26.031Z,8928.00
2022-08-05T09:54:29.298Z,8400.00
2022-08-05T09:55:57.524Z,8016.00
2022-08-05T09:56:23.069Z,7788.00
2022-08-05T09:57:23.643Z,7804.00
2022-08-05T09:58:21.447Z,7884.00
2022-08-05T09:59:21.466Z,7384.00
2022-08-05T10:00:21.702Z,7632.00
2022-08-05T10:01:31.430Z,8968.00
2022-08-05T10:02:22.786Z,8176.00
2022-08-05T10:03:22.672Z,6724.00
2022-08-05T10:04:29.282Z,7260.00
2022-08-05T10:05:22.991Z,7540.00
2022-08-05T10:06:23.257Z,7012.00
2022-08-05T10:08:11.247Z,7176.00
2022-08-05T10:08:37.291Z,7268.00
2022-08-05T10:09:27.400Z,7208.00
2022-08-05T10:10:28.097Z,7524.00
2022-08-05T10:11:22.813Z,8324.00
2022-08-05T10:12:33.936Z,8208.00
2022-08-05T10:13:43.903Z,7716.00
2022-08-05T10:14:22.361Z,7540.00
2022-08-05T10:15:25.643Z,7460.00
2022-08-05T10:16:23.628Z,7428.00
2022-08-05T10:17:37.874Z,7512.00
2022-08-05T10:18:23.901Z,7396.00
2022-08-05T10:19:23.804Z,7484.00
2022-08-05T10:20:22.370Z,7584.00
2022-08-05T10:21:22.046Z,7704.00
2022-08-05T10:22:29.751Z,8680.00
2022-08-05T10:23:55.108Z,8012.00
2022-08-05T10:24:25.052Z,8332.00
2022-08-05T10:25:21.168Z,8620.00
2022-08-05T10:26:32.720Z,9592.00
2022-08-05T10:27:26.288Z,9992.00
2022-08-05T10:28:29.762Z,9796.00
2022-08-05T10:29:23.401Z,10332.00
2022-08-05T10:32:47.266Z,10564.00
2022-08-05T10:32:52.921Z,10552.00
2022-08-05T10:32:54.992Z,10304.00
2022-08-05T10:33:22.325Z,9836.00
2022-08-05T10:34:25.843Z,9524.00
2022-08-05T10:35:22.090Z,8736.00
2022-08-05T10:36:23.419Z,7924.00
2022-08-05T10:37:22.069Z,7840.00
2022-08-05T10:38:21.148Z,7312.00
2022-08-05T10:39:24.932Z,7504.00
2022-08-05T10:40:27.823Z,7644.00
2022-08-05T10:41:23.648Z,8072.00
2022-08-05T10:42:33.321Z,8092.00
2022-08-05T10:43:23.223Z,8192.00
2022-08-05T10:44:21.975Z,8140.00
2022-08-05T10:45:30.516Z,7824.00
2022-08-05T10:46:23.754Z,7204.00
2022-08-05T10:47:26.920Z,6620.00
2022-08-05T10:48:30.669Z,6784.00
2022-08-05T10:49:26.779Z,6292.00
2022-08-05T10:50:36.248Z,5604.00
2022-08-05T10:51:23.019Z,5052.00
2022-08-05T10:52:24.061Z,4556.00
2022-08-05T10:53:20.897Z,4512.00
2022-08-05T10:54:28.126Z,4728.00
2022-08-05T10:55:21.921Z,4964.00
2022-08-05T10:56:25.464Z,5168.00
2022-08-05T10:57:21.906Z,5292.00
2022-08-05T10:58:21.012Z,5344.00
2022-08-05T11:00:03.676Z,5408.00
2022-08-05T11:00:22.955Z,5108.00
2022-08-05T11:01:28.506Z,4796.00
2022-08-05T11:02:37.832Z,4608.00
2022-08-05T11:03:24.893Z,4516.00
2022-08-05T11:04:21.523Z,4664.00
2022-08-05T11:05:20.940Z,5148.00
2022-08-05T11:06:20.812Z,5988.00
2022-08-05T11:07:32.993Z,6524.00
2022-08-05T11:08:36.811Z,7060.00
2022-08-05T11:09:24.397Z,7552.00
2022-08-05T11:10:21.746Z,7776.00
2022-08-05T11:11:20.803Z,8004.00
2022-08-05T11:12:20.781Z,8224.00
2022-08-05T11:13:20.711Z,8332.00
2022-08-05T11:14:37.072Z,8372.00
2022-08-05T11:15:22.688Z,8508.00
2022-08-05T11:16:20.793Z,8744.00
2022-08-05T11:17:20.866Z,8948.00
2022-08-05T11:18:22.646Z,8928.00
2022-08-05T11:20:10.369Z,8720.00
2022-08-05T11:20:22.448Z,8628.00
2022-08-05T11:21:20.613Z,8472.00
2022-08-05T11:22:20.656Z,8180.00
2022-08-05T11:23:20.767Z,7448.00
2022-08-05T11:24:30.808Z,6740.00
2022-08-05T11:26:04.904Z,6668.00
2022-08-05T11:26:28.790Z,6508.00
2022-08-05T11:27:21.845Z,6264.00
2022-08-05T11:28:20.649Z,6000.00
2022-08-05T11:29:20.695Z,5520.00
2022-08-05T11:30:20.547Z,5096.00
2022-08-05T11:31:58.122Z,4820.00
2022-08-05T11:32:21.635Z,4996.00
2022-08-05T11:33:21.249Z,3732.00
2022-08-05T11:34:22.781Z,3040.00
2022-08-05T11:35:22.645Z,2896.00
2022-08-05T11:36:34.204Z,2716.00
2022-08-05T11:38:29.337Z,2252.00
2022-08-05T11:38:30.246Z,2536.00
2022-08-05T11:39:21.549Z,2192.00
2022-08-05T11:40:22.122Z,2136.00
2022-08-05T11:41:54.443Z,2204.00
2022-08-05T11:42:21.418Z,2160.00
2022-08-05T11:43:21.407Z,2064.00
2022-08-05T11:44:40.593Z,2256.00
2022-08-05T11:46:14.613Z,2896.00
2022-08-05T11:46:32.178Z,3440.00
2022-08-05T11:47:22.119Z,3844.00
2022-08-05T11:48:22.385Z,4416.00
2022-08-05T11:49:20.387Z,4916.00
2022-08-05T11:50:20.451Z,5280.00
2022-08-05T11:51:44.586Z,5536.00
2022-08-05T11:52:23.000Z,6064.00
2022-08-05T11:53:21.326Z,6748.00
2022-08-05T11:54:20.452Z,7176.00
2022-08-05T11:55:20.302Z,7696.00
2022-08-05T11:56:20.336Z,7500.00
2022-08-05T11:57:24.984Z,7320.00
2022-08-05T11:58:21.469Z,7244.00
2022-08-05T11:59:21.181Z,6852.00
2022-08-05T12:00:20.279Z,6168.00
2022-08-05T12:01:20.274Z,5448.00
2022-08-05T12:02:24.135Z,4808.00
2022-08-05T12:03:28.674Z,4252.00
2022-08-05T12:04:21.488Z,4068.00
2022-08-05T12:05:20.304Z,4736.00
2022-08-05T12:06:20.193Z,5464.00
2022-08-05T12:08:03.520Z,5648.00
2022-08-05T12:08:21.166Z,5784.00
2022-08-05T12:09:20.250Z,5844.00
2022-08-05T12:10:20.144Z,5664.00
2022-08-05T12:11:20.482Z,5584.00
2022-08-05T12:12:20.159Z,5516.00
2022-08-05T12:13:47.873Z,5328.00
2022-08-05T12:14:22.039Z,5152.00
2022-08-05T12:15:20.058Z,4892.00
2022-08-05T12:16:25.649Z,4408.00
2022-08-05T12:18:03.868Z,3988.00
2022-08-05T12:18:24.368Z,3640.00
2022-08-05T12:20:27.690Z,3572.00
2022-08-05T12:20:30.703Z,3548.00
2022-08-05T12:21:21.223Z,3616.00
2022-08-05T12:22:20.254Z,3728.00
2022-08-05T12:23:20.035Z,3776.00
2022-08-05T12:24:20.049Z,3492.00
2022-08-05T12:25:20.046Z,3432.00
2022-08-05T12:26:20.039Z,3472.00
2022-08-05T12:27:31.466Z,3512.00
2022-08-05T12:28:20.944Z,3396.00
2022-08-05T12:29:22.871Z,3328.00
2022-08-05T12:30:20.043Z,3628.00
2022-08-05T12:31:28.031Z,4112.00
2022-08-05T12:32:21.145Z,4984.00
2022-08-05T12:33:27.686Z,5360.00
2022-08-05T12:34:23.815Z,4188.00
2022-08-05T12:35:21.590Z,4136.00
2022-08-05T12:36:20.067Z,4748.00
2022-08-05T12:37:30.182Z,4508.00
2022-08-05T12:38:22.330Z,4292.00
2022-08-05T12:39:20.984Z,4360.00
2022-08-05T12:40:20.738Z,4236.00
2022-08-05T12:41:21.360Z,3732.00
2022-08-05T12:42:20.843Z,3248.00
2022-08-05T12:43:21.101Z,2880.00
2022-08-05T12:44:21.570Z,2660.00
2022-08-05T12:45:20.783Z,2488.00
2022-08-05T12:46:23.597Z,2628.00
2022-08-05T12:47:21.085Z,2860.00